Time;durP1;ratioP1;P1;durP2;ratioP2;P2;SDS_P1;SDS_P2;PMS_P1;PMS_P2;Temp;Humidity;BMP_temperature;BMP_pressure;BME280_temperature;BME280_humidity;BME280_pressure;Samples;Min_cycle;Max_cycle;Signal;HPM_P1;HPM_P2
2023/11/13 00:01:14;;;;;;;12.88;9.13;;;;;;;11.82;100.00;102264.09;5045266;28;20396;-69
2023/11/13 00:03:40;;;;;;;13.35;9.55;;;;;;;11.49;100.00;102248.63;5046071;28;20039;-68
2023/11/13 00:06:06;;;;;;;13.98;9.10;;;;;;;11.39;100.00;102230.75;5045518;28;20037;-69
2023/11/13 00:08:32;;;;;;;11.90;8.75;;;;;;;11.67;100.00;102288.66;5045511;28;20029;-68
2023/11/13 00:10:57;;;;;;;11.10;8.80;;;;;;;11.17;100.00;102211.97;5027302;28;20086;-69
2023/11/13 00:13:23;;;;;;;14.07;8.70;;;;;;;11.62;100.00;102280.97;5044924;28;20041;-68
2023/11/13 00:15:48;;;;;;;10.68;8.20;;;;;;;11.34;100.00;102234.13;5045123;28;20116;-68
2023/11/13 00:18:14;;;;;;;9.75;8.35;;;;;;;11.66;100.00;102315.84;5045778;28;20040;-68
2023/11/13 00:20:40;;;;;;;12.00;8.77;;;;;;;11.13;100.00;102256.06;5046275;28;20396;-68
2023/11/13 00:23:06;;;;;;;13.70;8.18;;;;;;;11.70;100.00;102348.16;5047417;28;20040;-68
2023/11/13 00:25:32;;;;;;;10.55;8.10;;;;;;;11.85;100.00;102353.31;5049019;28;20078;-68
2023/11/13 00:27:58;;;;;;;12.45;8.82;;;;;;;11.84;100.00;102351.63;5048158;28;20032;-68
2023/11/13 00:30:23;;;;;;;11.88;8.20;;;;;;;11.77;100.00;102352.41;5049205;28;20021;-69
2023/11/13 00:32:49;;;;;;;10.63;8.10;;;;;;;11.32;100.00;102331.72;5049007;28;20059;-68
2023/11/13 00:35:14;;;;;;;10.43;8.60;;;;;;;11.38;100.00;102354.69;5048688;28;20032;-69
2023/11/13 00:37:40;;;;;;;13.52;8.38;;;;;;;11.26;100.00;102362.25;5031114;28;20037;-70
2023/11/13 00:40:06;;;;;;;10.82;8.23;;;;;;;11.86;100.00;102436.59;5048350;28;20039;-68
2023/11/13 00:42:32;;;;;;;11.50;7.88;;;;;;;11.42;100.00;102386.97;5048049;28;20513;-69
2023/11/13 00:44:57;;;;;;;11.38;7.90;;;;;;;11.37;100.00;102391.19;5030970;28;20107;-69
2023/11/13 00:47:23;;;;;;;14.27;8.70;;;;;;;11.47;100.00;102412.50;5048428;28;20035;-69
2023/11/13 00:49:48;;;;;;;11.05;7.60;;;;;;;11.60;100.00;102455.06;5048084;28;20055;-68
2023/11/13 00:52:14;;;;;;;11.32;8.18;;;;;;;11.68;100.00;102471.28;5048564;28;20461;-68
2023/11/13 00:54:39;;;;;;;12.63;8.23;;;;;;;11.65;100.00;102454.25;5048499;28;20033;-69
2023/11/13 00:57:05;;;;;;;13.02;8.38;;;;;;;11.50;100.00;102453.28;5048082;28;20467;-69
2023/11/13 00:59:30;;;;;;;10.15;7.38;;;;;;;11.42;100.00;102430.28;5048046;28;20052;-69
2023/11/13 01:01:57;;;;;;;12.88;7.15;;;;;;;10.98;100.00;102375.56;5048783;28;20471;-69
2023/11/13 01:04:23;;;;;;;9.52;6.75;;;;;;;11.27;100.00;102400.44;5047793;28;20467;-68
2023/11/13 01:06:55;;;;;;;10.80;6.95;;;;;;;11.44;100.00;102441.34;5046849;28;20041;-68
2023/11/13 01:09:20;;;;;;;9.65;6.20;;;;;;;11.55;100.00;102431.25;5048150;28;20124;-67
2023/11/13 01:11:46;;;;;;;12.20;5.90;;;;;;;11.42;100.00;102411.59;5046393;28;20123;-68
2023/11/13 01:14:11;;;;;;;9.75;5.82;;;;;;;11.36;100.00;102430.22;5048171;28;20063;-69
2023/11/13 01:16:38;;;;;;;9.15;5.65;;;;;;;11.24;100.00;102419.94;5048093;28;20029;-69
2023/11/13 01:19:03;;;;;;;6.28;4.93;;;;;;;11.53;100.00;102445.66;5048150;28;20024;-68
2023/11/13 01:21:29;;;;;;;7.57;5.70;;;;;;;11.33;100.00;102386.91;5048053;28;20043;-69
2023/11/13 01:23:55;;;;;;;11.27;5.63;;;;;;;11.30;100.00;102390.28;5047602;28;20025;-68
2023/11/13 01:26:21;;;;;;;8.27;5.22;;;;;;;11.57;100.00;102425.31;5047604;28;20028;-68
2023/11/13 01:28:46;;;;;;;8.93;5.60;;;;;;;11.13;100.00;102413.91;5046610;28;20028;-68
2023/11/13 01:31:14;;;;;;;7.00;5.50;;;;;;;11.14;100.00;102372.31;5047641;28;20029;-69
2023/11/13 01:33:40;;;;;;;9.02;5.30;;;;;;;11.68;100.00;102438.16;5046203;28;20032;-68
2023/11/13 01:36:06;;;;;;;6.70;4.47;;;;;;;11.67;100.00;102457.69;5047788;28;20017;-69
2023/11/13 01:38:33;;;;;;;6.90;4.32;;;;;;;11.42;100.00;102398.84;5045688;28;20035;-69
2023/11/13 01:40:59;;;;;;;5.88;4.75;;;;;;;11.54;100.00;102438.03;5047587;28;20159;-69
2023/11/13 01:43:24;;;;;;;6.72;4.63;;;;;;;11.79;100.00;102467.97;5047435;28;20583;-69
2023/11/13 01:45:55;;;;;;;8.45;5.07;;;;;;;11.03;100.00;102338.31;5044281;28;20041;-68
2023/11/13 01:48:21;;;;;;;7.93;4.60;;;;;;;11.14;100.00;102372.31;5047515;28;20029;-68
2023/11/13 01:50:48;;;;;;;6.15;4.57;;;;;;;11.37;100.00;102386.06;5047162;28;20029;-69
2023/11/13 01:53:18;;;;;;;8.68;4.45;;;;;;;11.62;100.00;102430.44;5046765;28;20043;-69
2023/11/13 01:55:45;;;;;;;6.55;4.78;;;;;;;11.12;100.00;102354.50;5047140;28;20078;-69
2023/11/13 01:58:12;;;;;;;6.78;4.43;;;;;;;11.49;100.00;102416.75;5046461;28;20036;-68
2023/11/13 02:00:38;;;;;;;8.57;4.22;;;;;;;11.12;100.00;102346.84;5046139;28;20419;-69
2023/11/13 02:03:05;;;;;;;6.95;4.20;;;;;;;11.54;100.00;102415.09;5046853;28;20096;-69
2023/11/13 02:05:31;;;;;;;5.43;3.58;;;;;;;11.25;100.00;102363.09;5047167;28;20233;-69
2023/11/13 02:07:56;;;;;;;5.28;4.20;;;;;;;11.32;100.00;102358.06;5028310;28;20432;-68
2023/11/13 02:10:23;;;;;;;6.32;4.10;;;;;;;11.22;100.00;102340.13;5047158;28;20067;-69
2023/11/13 02:12:49;;;;;;;5.75;4.20;;;;;;;11.66;100.00;102399.06;5047329;28;20056;-69
2023/11/13 02:15:15;;;;;;;6.78;4.20;;;;;;;11.24;100.00;102333.38;5045650;28;20033;-69
2023/11/13 02:18:00;;;;;;;7.07;4.50;;;;;;;11.39;100.00;102346.19;5045203;28;20037;-68
2023/11/13 02:20:26;;;;;;;6.68;3.67;;;;;;;11.73;100.00;102406.75;5046422;28;20611;-71
2023/11/13 02:22:52;;;;;;;6.63;4.05;;;;;;;11.43;100.00;102347.91;5045540;28;20087;-68
2023/11/13 02:25:22;;;;;;;8.63;3.63;;;;;;;11.67;100.00;102411.81;5046873;28;20025;-69
2023/11/13 02:27:52;;;;;;;5.05;3.20;;;;;;;11.46;100.00;102345.41;5046214;28;20044;-69
2023/11/13 02:30:18;;;;;;;6.07;3.45;;;;;;;11.78;100.00;102411.91;5045672;28;20040;-69
2023/11/13 02:32:43;;;;;;;4.78;3.10;;;;;;;11.71;100.00;102400.81;5046412;28;20037;-69
2023/11/13 02:35:09;;;;;;;5.53;3.35;;;;;;;11.26;100.00;102327.44;5046310;28;20047;-68
2023/11/13 02:37:34;;;;;;;6.30;3.47;;;;;;;11.70;100.00;102406.75;5046798;28;20040;-69
2023/11/13 02:40:00;;;;;;;5.40;2.95;;;;;;;11.33;100.00;102353.78;5045471;28;20040;-69
2023/11/13 02:42:25;;;;;;;5.13;3.15;;;;;;;11.67;100.00;102401.63;5046596;28;20036;-70
2023/11/13 02:44:51;;;;;;;5.55;3.10;;;;;;;11.72;100.00;102396.56;5045223;28;20029;-69
2023/11/13 02:47:17;;;;;;;5.78;2.75;;;;;;;11.64;100.00;102396.50;5046421;28;20028;-69
2023/11/13 02:49:42;;;;;;;4.55;2.70;;;;;;;11.58;100.00;102388.81;5046329;28;20062;-69
2023/11/13 02:52:08;;;;;;;3.78;2.70;;;;;;;11.42;100.00;102369.16;5028560;28;20392;-69
2023/11/13 02:54:33;;;;;;;5.45;2.67;;;;;;;11.24;100.00;102326.59;5045917;28;20051;-69
2023/11/13 02:57:00;;;;;;;4.88;2.53;;;;;;;11.05;100.00;102306.91;5046339;28;20027;-69
2023/11/13 02:59:25;;;;;;;4.15;2.42;;;;;;;11.01;100.00;102289.06;5045036;28;20040;-69
2023/11/13 03:01:51;;;;;;;4.63;2.55;;;;;;;11.27;100.00;102313.84;5045301;28;20028;-69
2023/11/13 03:04:16;;;;;;;3.83;2.70;;;;;;;11.43;100.00;102342.81;5045890;28;20052;-68
2023/11/13 03:06:42;;;;;;;5.78;2.70;;;;;;;11.08;100.00;102301.84;5027702;28;20132;-69
2023/11/13 03:09:09;;;;;;;4.38;2.75;;;;;;;11.34;100.00;102351.28;5046181;28;20017;-69
2023/11/13 03:11:34;;;;;;;5.10;2.92;;;;;;;11.22;100.00;102342.69;5046173;28;20092;-69
2023/11/13 03:14:00;;;;;;;5.25;2.88;;;;;;;10.88;100.00;102293.19;5045671;28;20503;-69
2023/11/13 03:16:25;;;;;;;4.60;2.38;;;;;;;10.55;100.00;102261.53;5046217;28;20029;-70
2023/11/13 03:18:51;;;;;;;3.50;2.38;;;;;;;11.01;100.00;102333.16;5045605;28;20656;-69
2023/11/13 03:21:16;;;;;;;5.25;2.53;;;;;;;11.04;100.00;102330.66;5045733;28;20033;-69
2023/11/13 03:23:42;;;;;;;4.07;2.30;;;;;;;11.13;100.00;102320.53;5026646;28;20035;-68
2023/11/13 03:26:08;;;;;;;2.95;2.40;;;;;;;10.95;100.00;102309.38;5046198;28;20029;-69
2023/11/13 03:28:33;;;;;;;3.95;2.50;;;;;;;10.96;100.00;102313.63;5046189;28;20036;-69
2023/11/13 03:30:59;;;;;;;5.90;2.67;;;;;;;10.91;100.00;102316.16;5045480;28;20100;-69
2023/11/13 03:33:25;;;;;;;3.30;2.15;;;;;;;10.84;100.00;102305.88;5045744;28;20075;-69
2023/11/13 03:35:50;;;;;;;2.90;2.13;;;;;;;10.47;100.00;102238.56;5045805;28;20112;-68
2023/11/13 03:38:16;;;;;;;4.70;1.98;;;;;;;10.04;100.00;102166.09;5045838;28;20040;-69
2023/11/13 03:40:42;;;;;;;4.15;2.42;;;;;;;10.33;100.00;102210.50;5046136;28;20037;-69
2023/11/13 03:43:07;;;;;;;2.85;2.28;;;;;;;10.33;100.00;102213.03;5045742;28;20458;-69
2023/11/13 03:45:32;;;;;;;4.50;2.00;;;;;;;10.62;100.00;102283.66;5045783;28;20037;-68
2023/11/13 03:47:58;;;;;;;4.50;2.20;;;;;;;10.67;100.00;102267.59;5043951;28;20025;-68
2023/11/13 03:50:24;;;;;;;4.68;1.80;;;;;;;10.34;100.00;102191.84;5045835;28;20048;-69
2023/11/13 03:52:49;;;;;;;4.45;2.00;;;;;;;10.78;100.00;102263.44;5046094;28;20154;-69
2023/11/13 03:55:15;;;;;;;4.65;2.10;;;;;;;10.78;100.00;102262.56;5044832;28;20033;-68
2023/11/13 03:57:40;;;;;;;4.50;2.03;;;;;;;10.73;100.00;102262.56;5050046;28;20036;-68
2023/11/13 04:00:07;;;;;;;3.35;2.20;;;;;;;10.75;100.00;102244.75;5049482;28;20112;-68
2023/11/13 04:02:33;;;;;;;4.53;2.13;;;;;;;10.67;100.00;102198.91;5048724;28;20033;-68
2023/11/13 04:04:59;;;;;;;3.92;1.70;;;;;;;10.79;100.00;102198.13;5049148;28;20051;-69
2023/11/13 04:07:24;;;;;;;3.92;2.00;;;;;;;11.07;100.00;102240.75;5049667;28;20115;-69
2023/11/13 04:09:50;;;;;;;3.85;1.92;;;;;;;10.87;100.00;102209.22;5049655;28;20080;-69
2023/11/13 04:12:15;;;;;;;3.72;2.08;;;;;;;10.79;100.00;102203.22;5049183;28;20518;-68
2023/11/13 04:14:41;;;;;;;2.90;1.83;;;;;;;10.86;100.00;102195.63;5031484;28;20033;-68
2023/11/13 04:17:07;;;;;;;4.93;1.95;;;;;;;10.14;100.00;102085.75;5047282;28;20464;-68
2023/11/13 04:19:33;;;;;;;3.85;1.95;;;;;;;10.60;100.00;102145.44;5049411;28;20033;-69
2023/11/13 04:21:59;;;;;;;3.00;1.60;;;;;;;11.08;100.00;102209.34;5029955;28;20037;-68
2023/11/13 04:24:25;;;;;;;2.78;1.83;;;;;;;10.92;100.00;102182.94;5049356;28;20083;-68
2023/11/13 04:26:50;;;;;;;3.38;2.10;;;;;;;11.03;100.00;102188.94;5048076;28;20032;-68
2023/11/13 04:29:16;;;;;;;3.63;2.15;;;;;;;10.41;100.00;102098.66;5048205;28;20090;-68
2023/11/13 04:31:42;;;;;;;3.78;2.40;;;;;;;10.94;100.00;102198.22;5049066;28;20051;-68
2023/11/13 04:34:07;;;;;;;4.15;2.58;;;;;;;10.72;100.00;102153.13;5049305;28;20025;-70
2023/11/13 04:36:33;;;;;;;4.75;2.85;;;;;;;11.21;100.00;102206.03;5049340;28;20055;-70
2023/11/13 04:38:59;;;;;;;3.42;1.90;;;;;;;10.40;100.00;102084.22;5048866;28;20033;-69
2023/11/13 04:41:24;;;;;;;3.05;1.80;;;;;;;10.92;100.00;102199.91;5029303;28;20060;-70
2023/11/13 04:43:50;;;;;;;2.25;1.80;;;;;;;11.08;100.00;102183.88;5046358;28;20021;-70
2023/11/13 04:46:16;;;;;;;3.50;2.00;;;;;;;11.02;100.00;102191.50;5048710;28;20036;-70
2023/11/13 04:48:41;;;;;;;3.72;2.05;;;;;;;10.62;100.00;102110.69;5046431;28;20075;-69
2023/11/13 04:51:07;;;;;;;3.45;1.60;;;;;;;10.96;100.00;102168.53;5048641;28;20201;-70
2023/11/13 04:53:33;;;;;;;4.07;1.95;;;;;;;10.98;100.00;102159.22;5047857;28;20415;-70
2023/11/13 04:55:58;;;;;;;3.75;1.50;;;;;;;10.48;100.00;102085.13;5048553;28;20033;-70
2023/11/13 04:58:24;;;;;;;3.15;1.85;;;;;;;10.39;100.00;102080.88;5047932;28;20419;-70
2023/11/13 05:00:49;;;;;;;2.70;1.80;;;;;;;10.76;100.00;102147.22;5047555;28;20025;-69
2023/11/13 05:03:15;;;;;;;5.15;2.00;;;;;;;10.35;100.00;102056.25;5047327;28;20404;-70
2023/11/13 05:05:41;;;;;;;4.10;1.67;;;;;;;10.85;100.00;102122.69;5047797;28;20048;-71
2023/11/13 05:08:07;;;;;;;2.97;1.77;;;;;;;11.12;100.00;102133.00;5046403;28;20202;-70
2023/11/13 05:10:33;;;;;;;4.80;2.22;;;;;;;10.92;100.00;102114.25;5031323;28;20438;-73
2023/11/13 05:12:59;;;;;;;3.03;2.03;;;;;;;10.45;100.00;102052.94;5048756;28;20061;-73
2023/11/13 05:15:24;;;;;;;4.40;1.90;;;;;;;10.44;100.00;102046.13;5048127;28;20021;-70
2023/11/13 05:17:50;;;;;;;3.08;1.90;;;;;;;10.66;100.00;102118.31;5047195;28;20388;-70
2023/11/13 05:20:17;;;;;;;4.05;2.00;;;;;;;10.62;100.00;102085.25;5028440;28;20114;-72
2023/11/13 05:22:43;;;;;;;3.47;1.98;;;;;;;10.85;100.00;102124.38;5027972;28;20033;-72
2023/11/13 05:25:09;;;;;;;3.08;1.80;;;;;;;10.43;100.00;102081.72;5048279;28;20083;-74
2023/11/13 05:27:34;;;;;;;2.63;1.80;;;;;;;10.82;100.00;102134.53;5046592;28;20025;-71
2023/11/13 05:30:00;;;;;;;4.70;2.33;;;;;;;11.10;100.00;102144.88;5047840;28;20035;-70
2023/11/13 05:32:25;;;;;;;4.03;2.13;;;;;;;11.07;100.00;102141.47;5029789;28;20036;-71
2023/11/13 05:34:52;;;;;;;3.90;1.90;;;;;;;10.98;100.00;102175.34;5048157;28;20025;-70
2023/11/13 05:37:17;;;;;;;5.03;2.10;;;;;;;10.88;100.00;102149.84;5030489;28;20028;-74
2023/11/13 05:39:43;;;;;;;4.35;1.70;;;;;;;11.04;100.00;102156.72;5046331;28;21764;-71
2023/11/13 05:42:08;;;;;;;2.72;1.58;;;;;;;10.79;100.00;102114.16;5047248;28;20032;-71
2023/11/13 05:44:36;;;;;;;8.30;2.25;;;;;;;10.68;100.00;102113.22;5046778;28;20047;-76
2023/11/13 05:47:03;;;;;;;3.67;2.63;;;;;;;10.23;100.00;102034.97;5048335;28;20025;-72
2023/11/13 05:49:30;;;;;;;7.03;2.10;;;;;;;11.33;100.00;102181.47;5047008;28;20446;-69
2023/11/13 05:51:56;;;;;;;4.00;2.45;;;;;;;10.75;100.00;102133.66;5028998;28;20056;-72
2023/11/13 05:54:22;;;;;;;3.85;2.00;;;;;;;11.25;100.00;102205.22;5046924;28;20107;-70
2023/11/13 05:56:48;;;;;;;4.78;2.00;;;;;;;10.90;100.00;102148.16;5047897;28;20029;-70
2023/11/13 05:59:14;;;;;;;4.80;2.28;;;;;;;11.19;100.00;102164.44;5048040;28;20036;-72
2023/11/13 06:01:40;;;;;;;4.70;2.78;;;;;;;11.27;100.00;102211.13;5047743;28;20040;-72
2023/11/13 06:04:06;;;;;;;6.78;3.47;;;;;;;10.43;100.00;102059.69;5047304;28;20041;-71
2023/11/13 06:06:31;;;;;;;5.75;2.97;;;;;;;10.90;100.00;102120.16;5047179;28;20056;-74
2023/11/13 06:08:56;;;;;;;3.97;2.60;;;;;;;11.17;100.00;102166.97;5047550;28;20028;-74
2023/11/13 06:11:22;;;;;;;4.60;2.85;;;;;;;11.09;100.00;102188.97;5047056;28;20024;-75
2023/11/13 06:13:48;;;;;;;4.13;2.70;;;;;;;11.20;100.00;102186.50;5047166;28;20047;-74
2023/11/13 06:16:15;;;;;;;4.93;2.47;;;;;;;11.17;100.00;102173.78;5047448;28;20041;-75
2023/11/13 06:18:53;;;;;;;4.50;2.70;;;;;;;10.93;100.00;102128.69;5047351;28;20039;-73
2023/11/13 06:21:19;;;;;;;4.32;2.40;;;;;;;11.56;100.00;102211.28;5047504;28;20083;-69
2023/11/13 06:23:44;;;;;;;4.97;2.85;;;;;;;11.46;100.00;102219.72;5047901;28;20110;-73
2023/11/13 06:26:12;;;;;;;4.47;3.20;;;;;;;11.28;100.00;102172.97;5047597;28;20442;-74
2023/11/13 06:28:39;;;;;;;5.78;3.00;;;;;;;11.20;100.00;102138.13;5047407;28;20029;-73
2023/11/13 06:31:05;;;;;;;5.03;3.80;;;;;;;11.89;100.00;102213.97;5047718;28;20032;-75
2023/11/13 06:33:31;;;;;;;8.48;5.93;;;;;;;11.53;100.00;102184.09;5047293;28;20063;-75
2023/11/13 06:35:56;;;;;;;6.50;4.05;;;;;;;11.12;100.00;102115.19;5046940;28;20107;-74
2023/11/13 06:38:21;;;;;;;4.65;3.38;;;;;;;11.38;100.00;102173.00;5047985;28;20129;-75
2023/11/13 06:40:49;;;;;;;7.55;3.33;;;;;;;11.13;100.00;102121.13;5048063;28;20032;-76
2023/11/13 06:43:15;;;;;;;3.63;3.10;;;;;;;11.39;100.00;102184.91;5046575;28;20128;-69
2023/11/13 06:45:43;;;;;;;5.38;3.08;;;;;;;11.25;100.00;102142.38;5029634;28;20127;-73
2023/11/13 06:48:08;;;;;;;4.05;3.28;;;;;;;11.62;100.00;102173.09;5047549;28;20029;-73
2023/11/13 06:50:36;;;;;;;6.15;3.05;;;;;;;11.20;100.00;102120.31;5046272;28;20035;-73
2023/11/13 06:53:02;;;;;;;8.75;3.92;;;;;;;11.38;100.00;102116.97;5047586;28;20043;-74
2023/11/13 06:55:27;;;;;;;9.00;4.40;;;;;;;11.80;100.00;102189.34;5046428;28;20124;-71
2023/11/13 06:57:53;;;;;;;5.97;4.30;;;;;;;11.97;100.00;102207.19;5047103;28;20045;-71
2023/11/13 07:00:20;;;;;;;7.25;4.20;;;;;;;11.51;100.00;102149.28;5047217;28;20079;-72
2023/11/13 07:02:47;;;;;;;8.85;5.63;;;;;;;11.60;100.00;102152.72;5047302;28;20029;-72
2023/11/13 07:05:13;;;;;;;7.35;4.03;;;;;;;11.57;100.00;102188.34;5046248;28;20128;-73
2023/11/13 07:07:38;;;;;;;5.53;3.50;;;;;;;11.92;100.00;102206.34;5047241;28;20128;-73
2023/11/13 07:10:04;;;;;;;5.25;3.47;;;;;;;11.57;100.00;102180.72;5046687;28;20083;-72
2023/11/13 07:12:31;;;;;;;5.13;2.83;;;;;;;11.75;100.00;102211.38;5046692;28;20036;-71
2023/11/13 07:14:57;;;;;;;8.25;3.30;;;;;;;11.74;100.00;102203.75;5046108;28;20063;-73
2023/11/13 07:17:24;;;;;;;9.10;4.30;;;;;;;11.93;100.00;102211.44;5028452;28;20090;-73
2023/11/13 07:19:50;;;;;;;11.00;4.60;;;;;;;12.06;100.00;102231.00;5046977;28;20029;-73
2023/11/13 07:22:16;;;;;;;12.25;5.38;;;;;;;11.68;100.00;102161.25;5046967;28;20039;-73
2023/11/13 07:24:42;;;;;;;10.90;5.38;;;;;;;11.78;100.00;102159.59;5047029;28;20054;-74
2023/11/13 07:27:07;;;;;;;14.30;7.97;;;;;;;12.33;100.00;102244.66;5045188;28;20531;-73
2023/11/13 07:29:33;;;;;;;9.48;5.22;;;;;;;12.47;100.00;102240.44;5046900;28;20057;-73
2023/11/13 07:32:01;;;;;;;9.57;5.70;;;;;;;11.77;100.00;102153.63;5050996;28;20116;-69
2023/11/13 07:34:28;;;;;;;18.02;8.98;;;;;;;12.49;100.00;102254.03;5050595;28;20116;-73
2023/11/13 07:36:53;;;;;;;26.60;10.80;;;;;;;12.18;100.00;102179.22;5050532;28;20025;-73
2023/11/13 07:39:19;;;;;;;9.15;4.22;;;;;;;12.14;100.00;102198.72;5049889;28;20032;-73
2023/11/13 07:41:44;;;;;;;5.43;2.88;;;;;;;12.50;100.00;102210.66;5049472;28;20469;-71
2023/11/13 07:44:10;;;;;;;4.30;2.00;;;;;;;12.50;100.00;102230.25;5051091;28;20487;-73
2023/11/13 07:46:35;;;;;;;4.18;2.20;;;;;;;12.57;100.00;102206.41;5050686;28;20388;-74
2023/11/13 07:49:01;;;;;;;3.92;2.10;;;;;;;12.55;100.00;102213.22;5050992;28;20041;-74
2023/11/13 07:51:30;;;;;;;4.80;2.25;;;;;;;12.76;100.00;102259.16;5049838;28;20027;-75
2023/11/13 07:53:56;;;;;;;3.20;2.30;;;;;;;12.87;100.00;102226.81;5050811;28;20075;-74
2023/11/13 07:56:22;;;;;;;4.15;2.00;;;;;;;12.72;100.00;102242.13;5050063;28;20611;-72
2023/11/13 07:58:48;;;;;;;5.38;2.30;;;;;;;12.83;100.00;102260.88;5050439;28;20107;-73
2023/11/13 08:01:13;;;;;;;3.47;1.92;;;;;;;13.18;100.00;102269.38;5032058;28;20121;-73
2023/11/13 08:03:39;;;;;;;4.28;1.88;;;;;;;12.93;100.00;102216.59;5050347;28;20032;-72
2023/11/13 08:06:05;;;;;;;3.42;1.70;;;;;;;12.81;100.00;102185.97;5048810;28;20040;-73
2023/11/13 08:08:33;;;;;;;4.15;1.77;;;;;;;13.06;100.00;102233.63;5048453;28;20100;-72
2023/11/13 08:10:59;;;;;;;4.88;2.50;;;;;;;12.58;100.00;102157.06;5049261;28;20028;-71
2023/11/13 08:13:24;;;;;;;4.82;2.78;;;;;;;13.12;100.00;102222.53;5032135;28;20032;-72
2023/11/13 08:15:51;;;;;;;33.60;15.35;;;;;;;13.21;100.00;102240.41;5050312;28;20053;-73
2023/11/13 08:18:18;;;;;;;24.92;12.15;;;;;;;12.76;100.00;102162.16;5049837;28;20028;-70
2023/11/13 08:20:46;;;;;;;16.90;10.20;;;;;;;13.41;100.00;102221.59;5049911;28;20101;-73
2023/11/13 08:23:13;;;;;;;15.80;8.50;;;;;;;13.29;100.00;102225.94;5049260;28;20056;-73
2023/11/13 08:25:46;;;;;;;10.95;7.82;;;;;;;12.86;100.00;102151.06;5050096;28;20036;-72
2023/11/13 08:28:12;;;;;;;6.35;3.88;;;;;;;13.12;100.00;102166.34;5049888;28;20098;-74
2023/11/13 08:30:41;;;;;;;17.67;11.52;;;;;;;13.58;100.00;102219.84;5049769;28;20411;-72
2023/11/13 08:33:08;;;;;;;6.07;3.80;;;;;;;12.98;100.00;102134.03;5049216;28;20055;-73
2023/11/13 08:35:34;;;;;;;6.20;2.40;;;;;;;13.08;100.00;102147.63;5031819;28;20033;-71
2023/11/13 08:37:59;;;;;;;5.35;2.90;;;;;;;13.43;100.00;102208.84;5049994;28;20451;-72
2023/11/13 08:40:25;;;;;;;14.73;7.80;;;;;;;13.63;100.00;102202.78;5049595;28;20466;-73
2023/11/13 08:42:54;;;;;;;9.88;5.55;;;;;;;13.55;100.00;102186.63;5048351;28;20549;-73
2023/11/13 08:45:21;;;;;;;10.13;5.97;;;;;;;13.62;100.00;102164.44;5049141;28;20029;-72
2023/11/13 08:47:49;;;;;;;6.45;1.95;;;;;;;12.88;100.00;102095.75;5049394;28;20032;-73
2023/11/13 08:50:15;;;;;;;5.22;1.98;;;;;;;13.47;100.00;102155.13;5031032;28;20116;-72
2023/11/13 08:52:43;;;;;;;7.82;1.90;;;;;;;13.54;100.00;102177.28;5048629;28;20036;-71
2023/11/13 08:55:12;;;;;;;4.35;1.60;;;;;;;13.60;100.00;102176.38;5049198;28;20025;-71
2023/11/13 08:57:42;;;;;;;3.35;1.65;;;;;;;13.39;100.00;102159.44;5031001;28;20597;-70
2023/11/13 09:00:18;;;;;;;9.43;4.93;;;;;;;13.04;100.00;102098.28;5048282;28;20545;-70
2023/11/13 09:02:46;;;;;;;5.10;2.25;;;;;;;13.47;100.00;102155.13;5047305;28;20090;-69
2023/11/13 09:05:13;;;;;;;3.83;1.90;;;;;;;13.84;100.00;102159.19;5047305;28;20108;-71
2023/11/13 09:07:40;;;;;;;3.80;2.38;;;;;;;13.82;100.00;102152.41;5048529;28;20033;-70
2023/11/13 09:10:08;;;;;;;3.65;1.88;;;;;;;13.88;100.00;102158.31;5048695;28;20029;-70
2023/11/13 09:12:36;;;;;;;5.00;1.42;;;;;;;13.62;100.00;102156.78;5047830;28;20036;-70
2023/11/13 09:15:11;;;;;;;3.30;2.10;;;;;;;13.80;100.00;102088.50;5047417;28;20021;-71
2023/11/13 09:17:41;;;;;;;7.78;3.80;;;;;;;13.72;100.00;102072.38;5048268;28;20424;-71
2023/11/13 09:20:08;;;;;;;6.25;2.70;;;;;;;14.03;100.00;102100.25;5030721;28;20198;-71
2023/11/13 09:22:33;;;;;;;4.75;2.40;;;;;;;13.84;100.00;102068.88;5049161;28;22288;-74
2023/11/13 09:24:59;;;;;;;2.83;1.20;;;;;;;14.05;100.00;102068.69;5046627;28;20036;-70
2023/11/13 09:27:24;;;;;;;4.97;2.10;;;;;;;13.92;100.00;102080.72;5048245;28;20029;-72
2023/11/13 09:29:50;;;;;;;16.75;6.97;;;;;;;14.29;100.00;102063.38;5030492;28;20493;-72
2023/11/13 09:32:15;;;;;;;18.40;7.60;;;;;;;14.48;100.00;102108.41;5048580;28;20464;-72
2023/11/13 09:34:47;;;;;;;3.78;1.63;;;;;;;14.26;100.00;102057.41;5030804;28;20130;-71
2023/11/13 09:37:15;;;;;;;3.50;1.58;;;;;;;14.96;100.00;102111.28;5048683;28;20039;-72
2023/11/13 09:39:46;;;;;;;3.33;1.67;;;;;;;14.70;100.00;102045.00;5030647;28;20033;-72
2023/11/13 09:42:20;;;;;;;5.83;1.60;;;;;;;14.35;100.00;102044.56;5048275;28;20033;-72
2023/11/13 09:44:48;;;;;;;5.70;1.83;;;;;;;14.87;100.00;102093.50;5025373;28;20033;-72
2023/11/13 09:47:20;;;;;;;6.63;2.80;;;;;;;14.99;100.00;102109.56;5048562;28;20021;-72
2023/11/13 09:50:10;;;;;;;14.45;5.97;;;;;;;15.07;100.00;102086.41;5062563;28;20029;-72
2023/11/13 09:52:37;;;;;;;5.10;2.38;;;;;;;14.94;100.00;102082.28;5046429;28;20035;-73
2023/11/13 09:55:02;;;;;;;8.75;2.60;;;;;;;15.12;100.00;102092.31;5047329;28;20029;-73
2023/11/13 09:57:28;;;;;;;7.05;2.20;;;;;;;15.15;100.00;102046.16;5046646;28;20119;-73
2023/11/13 09:59:56;;;;;;;6.40;1.80;;;;;;;15.44;100.00;102085.09;5047662;28;20045;-72
2023/11/13 10:02:23;;;;;;;4.72;2.38;;;;;;;15.00;100.00;102046.34;5046797;28;20444;-73
2023/11/13 10:04:49;;;;;;;3.85;2.35;;;;;;;15.44;100.00;102097.91;5047642;28;20045;-72
2023/11/13 10:07:18;;;;;;;4.70;1.70;;;;;;;15.65;100.00;102089.06;5046794;28;20033;-72
2023/11/13 10:10:00;;;;;;;4.93;1.80;;;;;;;15.03;100.00;101948.97;5047737;28;20037;-72
2023/11/13 10:12:28;;;;;;;12.07;4.50;;;;;;;15.39;100.00;101980.00;5046715;28;20036;-73
2023/11/13 10:15:12;;;;;;;7.85;3.08;;;;;;;15.60;100.00;101972.03;5047962;28;20024;-73
2023/11/13 10:17:58;;;;;;;3.28;1.45;;;;;;;15.60;100.00;101974.59;5048119;28;20051;-72
2023/11/13 10:20:28;;;;;;;12.93;1.95;;;;;;;15.82;100.00;101940.88;5047196;28;20029;-73
2023/11/13 10:23:06;;;;;;;4.88;1.85;;;;;;;16.03;100.00;101971.25;5046560;28;20085;-70
2023/11/13 10:25:55;;;;;;;5.07;1.58;;;;;;;15.96;100.00;102019.28;5046876;28;20053;-69
2023/11/13 10:28:24;;;;;;;4.63;1.60;;;;;;;15.71;100.00;101969.25;5045914;28;20033;-69
2023/11/13 10:30:59;;;;;;;3.92;1.60;;;;;;;16.38;100.00;102030.50;5046939;28;20064;-69
2023/11/13 10:33:26;;;;;;;2.35;1.25;;;;;;;16.19;100.00;102022.28;5045436;28;20127;-69
2023/11/13 10:35:53;;;;;;;4.15;1.48;;;;;;;16.26;100.00;101984.53;5046450;28;20033;-69
2023/11/13 10:38:24;;;;;;;3.05;1.30;;;;;;;15.85;100.00;102017.75;5028832;28;20422;-69
2023/11/13 10:40:55;;;;;;;2.88;1.40;;;;;;;15.78;100.00;101946.94;5028725;28;20041;-69
2023/11/13 10:43:28;;;;;;;5.50;1.40;;;;;;;15.73;100.00;101952.13;5043985;28;20136;-69
2023/11/13 10:45:54;;;;;;;4.65;1.50;;;;;;;15.78;100.00;101996.50;5046883;28;20100;-72
2023/11/13 10:48:31;;;;;;;5.07;1.70;;;;;;;16.14;100.00;101943.69;5025355;28;20132;-74
2023/11/13 10:51:03;;;;;;;10.57;5.05;;;;;;;15.99;100.00;101960.22;5046099;28;20155;-69
2023/11/13 10:53:31;;;;;;;3.65;2.05;;;;;;;16.15;100.00;102024.94;5046166;28;20040;-71
2023/11/13 10:55:58;;;;;;;3.15;1.40;;;;;;;16.09;100.00;102045.56;5045647;28;20057;-71
2023/11/13 10:58:23;;;;;;;4.22;1.55;;;;;;;15.95;100.00;102014.16;5046803;28;20024;-71
2023/11/13 11:00:50;;;;;;;3.75;1.55;;;;;;;16.45;100.00;102074.03;5047121;28;20054;-69
2023/11/13 11:03:18;;;;;;;3.70;2.10;;;;;;;16.31;100.00;102010.94;5046317;28;20029;-71
2023/11/13 11:05:48;;;;;;;4.40;1.90;;;;;;;16.38;100.00;101987.69;5045967;28;20041;-71
2023/11/13 11:08:15;;;;;;;2.70;1.60;;;;;;;17.13;100.00;102080.38;5027936;28;20032;-74
2023/11/13 11:10:41;;;;;;;2.92;1.80;;;;;;;16.64;100.00;102095.09;5046507;28;20021;-72
2023/11/13 11:13:14;;;;;;;4.95;2.17;;;;;;;16.25;100.00;102031.59;5027900;28;20044;-72
2023/11/13 11:16:13;;;;;;;8.07;2.95;;;;;;;16.27;100.00;102099.16;5046683;28;20029;-72